createdAt,value
2022-08-27T00:02:21.337Z,96607.50
2022-08-27T00:04:50.127Z,96603.50
2022-08-27T00:07:18.916Z,96605.06
2022-08-27T00:09:47.634Z,96611.72
2022-08-27T00:12:17.827Z,96609.63
2022-08-27T00:14:46.617Z,96612.41
2022-08-27T00:17:15.850Z,96612.41
2022-08-27T00:19:44.719Z,96619.53
2022-08-27T00:22:13.639Z,96615.16
2022-08-27T00:24:48.636Z,96614.78
2022-08-27T00:27:19.547Z,96617.56
2022-08-27T00:29:48.026Z,96619.13
2022-08-27T00:32:17.516Z,96628.59
2022-08-27T00:34:46.148Z,96631.34
2022-08-27T00:37:15.013Z,96632.97
2022-08-27T00:39:43.438Z,96638.09
2022-08-27T00:42:12.374Z,96644.41
2022-08-27T00:44:42.030Z,96650.34
2022-08-27T00:47:16.209Z,96651.22
2022-08-27T00:49:49.128Z,96664.31
2022-08-27T00:52:26.040Z,96660.81
2022-08-27T00:54:59.850Z,96665.59
2022-08-27T00:57:28.696Z,96672.03
2022-08-27T00:59:58.501Z,96676.16
2022-08-27T01:02:30.638Z,96685.41
2022-08-27T01:05:04.248Z,96680.31
2022-08-27T01:07:37.106Z,96685.97
2022-08-27T01:10:11.819Z,96684.78
2022-08-27T01:12:40.797Z,96687.56
2022-08-27T01:15:16.923Z,96682.84
2022-08-27T01:17:49.910Z,96682.78
2022-08-27T01:20:24.236Z,96678.44
2022-08-27T01:23:02.910Z,96682.75
2022-08-27T01:25:34.010Z,96689.78
2022-08-27T01:28:05.907Z,96687.00
2022-08-27T01:30:35.054Z,96697.69
2022-08-27T01:33:10.942Z,96694.53
2022-08-27T01:35:40.425Z,96697.22
2022-08-27T01:38:18.989Z,96697.22
2022-08-27T01:41:00.491Z,96696.09
2022-08-27T01:43:31.151Z,96695.78
2022-08-27T01:46:00.681Z,96705.72
2022-08-27T01:48:29.074Z,96711.69
2022-08-27T01:50:57.630Z,96706.53
2022-08-27T01:53:27.611Z,96707.72
2022-08-27T01:55:57.250Z,96712.09
2022-08-27T01:58:30.512Z,96704.59
2022-08-27T02:01:03.565Z,96702.59
2022-08-27T02:03:32.616Z,96700.22
2022-08-27T02:06:06.075Z,96688.72
2022-08-27T02:08:34.877Z,96691.53
2022-08-27T02:11:08.162Z,96690.38
2022-08-27T02:13:39.229Z,96693.16
2022-08-27T02:16:07.690Z,96691.56
2022-08-27T02:18:38.502Z,96688.38
2022-08-27T02:21:10.447Z,96686.75
2022-08-27T02:23:39.721Z,96690.28
2022-08-27T02:26:08.213Z,96689.03
2022-08-27T02:28:38.347Z,96689.44
2022-08-27T02:31:07.469Z,96686.25
2022-08-27T02:33:36.027Z,96685.00
2022-08-27T02:36:06.118Z,96683.78
2022-08-27T02:38:35.224Z,96674.22
2022-08-27T02:41:03.543Z,96682.50
2022-08-27T02:43:32.595Z,96680.59
2022-08-27T02:46:05.807Z,96676.56
2022-08-27T02:48:37.460Z,96673.81
2022-08-27T02:51:07.050Z,96674.28
2022-08-27T02:53:38.508Z,96676.63
2022-08-27T02:56:09.578Z,96669.09
2022-08-27T02:58:39.079Z,96666.34
2022-08-27T03:01:11.216Z,96663.25
2022-08-27T03:03:42.272Z,96657.72
2022-08-27T03:06:10.542Z,96655.75
2022-08-27T03:08:53.343Z,96654.56
2022-08-27T03:11:24.051Z,96655.00
2022-08-27T03:13:52.943Z,96655.84
2022-08-27T03:16:23.210Z,96647.09
2022-08-27T03:18:51.570Z,96643.91
2022-08-27T03:21:22.413Z,96647.84
2022-08-27T03:23:51.051Z,96655.72
2022-08-27T03:26:20.989Z,96651.38
2022-08-27T03:28:49.303Z,96649.00
2022-08-27T03:31:26.862Z,96658.06
2022-08-27T03:34:01.656Z,96649.75
2022-08-27T03:36:32.041Z,96639.47
2022-08-27T03:39:00.503Z,96652.09
2022-08-27T03:41:43.814Z,96653.97
2022-08-27T03:44:21.803Z,96648.31
2022-08-27T03:46:50.956Z,96647.47
2022-08-27T03:49:22.947Z,96649.50
2022-08-27T03:51:54.118Z,96653.50
2022-08-27T03:54:22.812Z,96651.94
2022-08-27T03:56:51.438Z,96647.72
2022-08-27T03:59:20.212Z,96644.59
2022-08-27T04:01:48.925Z,96645.03
2022-08-27T04:04:17.333Z,96647.38
2022-08-27T04:06:47.357Z,96651.28
2022-08-27T04:09:16.046Z,96639.72
2022-08-27T04:11:45.559Z,96638.91
2022-08-27T04:14:25.390Z,96634.13
2022-08-27T04:16:56.370Z,96629.38
2022-08-27T04:19:27.959Z,96635.81
2022-08-27T04:22:02.599Z,96631.13
2022-08-27T04:24:33.645Z,96638.59
2022-08-27T04:27:02.840Z,96625.19
2022-08-27T04:29:31.832Z,96640.09
2022-08-27T04:32:01.234Z,96637.66
2022-08-27T04:34:30.102Z,96642.00
2022-08-27T04:37:00.942Z,96644.09
2022-08-27T04:39:31.310Z,96637.78
2022-08-27T04:42:01.783Z,96635.84
2022-08-27T04:44:33.714Z,96632.69
2022-08-27T04:47:05.858Z,96645.28
2022-08-27T04:49:34.940Z,96639.72
2022-08-27T04:52:06.142Z,96644.13
2022-08-27T04:54:35.981Z,96639.34
2022-08-27T04:57:07.174Z,96645.66
2022-08-27T04:59:36.860Z,96654.00
2022-08-27T05:02:09.424Z,96647.25
2022-08-27T05:04:41.059Z,96643.72
2022-08-27T05:07:11.982Z,96649.63
2022-08-27T05:09:40.209Z,96648.06
2022-08-27T05:12:09.398Z,96653.59
2022-08-27T05:14:38.386Z,96656.38
2022-08-27T05:17:06.821Z,96661.50
2022-08-27T05:19:35.158Z,96658.38
2022-08-27T05:22:03.431Z,96661.94
2022-08-27T05:24:33.391Z,96664.34
2022-08-27T05:27:01.645Z,96675.81
2022-08-27T05:29:31.618Z,96677.69
2022-08-27T05:32:00.065Z,96675.69
2022-08-27T05:34:29.876Z,96671.72
2022-08-27T05:36:58.805Z,96673.75
2022-08-27T05:39:27.046Z,96681.38
2022-08-27T05:41:59.355Z,96682.25
2022-08-27T05:44:42.975Z,96681.88
2022-08-27T05:47:12.112Z,96676.69
2022-08-27T05:49:40.427Z,96685.41
2022-08-27T05:52:13.511Z,96682.38
2022-08-27T05:54:42.219Z,96680.81
2022-08-27T05:57:12.433Z,96677.72
2022-08-27T05:59:58.190Z,96679.78
2022-08-27T06:02:26.790Z,96670.31
2022-08-27T06:04:55.567Z,96677.50
2022-08-27T06:07:24.036Z,96679.94
2022-08-27T06:09:52.290Z,96676.38
2022-08-27T06:12:28.306Z,96676.38
2022-08-27T06:14:57.586Z,96673.66
2022-08-27T06:17:26.277Z,96681.59
2022-08-27T06:19:54.627Z,96678.81
2022-08-27T06:22:23.033Z,96676.88
2022-08-27T06:24:51.555Z,96668.53
2022-08-27T06:27:22.172Z,96675.31
2022-08-27T06:29:50.397Z,96674.16
2022-08-27T06:32:19.438Z,96671.72
2022-08-27T06:34:48.675Z,96674.31
2022-08-27T06:37:16.968Z,96677.34
2022-08-27T06:39:45.822Z,96675.38
2022-08-27T06:42:14.885Z,96674.88
2022-08-27T06:44:44.537Z,96672.44
2022-08-27T06:47:13.070Z,96675.28
2022-08-27T06:49:46.188Z,96680.16
2022-08-27T06:52:16.662Z,96680.72
2022-08-27T06:54:45.809Z,96681.53
2022-08-27T06:57:14.436Z,96688.47
2022-08-27T06:59:44.557Z,96684.78
2022-08-27T07:02:12.962Z,96688.31
2022-08-27T07:04:41.314Z,96684.38
2022-08-27T07:07:13.713Z,96693.56
2022-08-27T07:09:41.973Z,96701.56
2022-08-27T07:12:10.336Z,96693.97
2022-08-27T07:14:38.983Z,96697.16
2022-08-27T07:17:11.336Z,96694.41
2022-08-27T07:19:44.670Z,96698.34
2022-08-27T07:22:13.949Z,96697.91
2022-08-27T07:24:42.439Z,96706.88
2022-08-27T07:27:11.506Z,96694.03
2022-08-27T07:29:40.138Z,96707.41
2022-08-27T07:32:10.129Z,96707.16
2022-08-27T07:34:38.406Z,96705.38
2022-08-27T07:37:07.021Z,96706.50
2022-08-27T07:39:35.455Z,96704.28
2022-08-27T07:42:21.114Z,96705.19
2022-08-27T07:44:49.953Z,96705.06
2022-08-27T07:47:19.930Z,96708.50
2022-08-27T07:49:48.686Z,96716.16
2022-08-27T07:52:17.546Z,96711.91
2022-08-27T07:54:45.947Z,96715.56
2022-08-27T07:57:14.673Z,96716.53
2022-08-27T07:59:42.915Z,96713.94
2022-08-27T08:02:12.818Z,96718.59
2022-08-27T08:04:42.468Z,96719.09
2022-08-27T08:07:10.778Z,96726.44
2022-08-27T08:09:39.608Z,96727.63
2022-08-27T08:12:08.324Z,96727.00
2022-08-27T08:14:37.544Z,96726.81
2022-08-27T08:17:10.344Z,96725.25
2022-08-27T08:19:40.362Z,96726.69
2022-08-27T08:22:10.439Z,96733.75
2022-08-27T08:24:39.027Z,96729.94
2022-08-27T08:27:08.046Z,96731.22
2022-08-27T08:29:38.023Z,96739.78
2022-08-27T08:32:08.468Z,96729.03
2022-08-27T08:34:37.472Z,96727.72
2022-08-27T08:37:07.373Z,96735.88
2022-08-27T08:39:38.480Z,96739.09
2022-08-27T08:42:22.204Z,96741.63
2022-08-27T08:44:53.942Z,96732.97
2022-08-27T08:47:28.414Z,96746.94
2022-08-27T08:50:09.220Z,96731.66
2022-08-27T08:52:53.271Z,96729.19
2022-08-27T08:55:43.741Z,96735.34
2022-08-27T08:58:31.260Z,96732.28
2022-08-27T09:01:02.070Z,96733.50
2022-08-27T09:03:36.362Z,96726.97
2022-08-27T09:06:15.519Z,96733.22
2022-08-27T09:08:45.586Z,96725.22
2022-08-27T09:11:28.896Z,96728.03
2022-08-27T09:14:02.947Z,96722.19
2022-08-27T09:16:32.434Z,96717.25
2022-08-27T09:19:05.991Z,96723.19
2022-08-27T09:21:46.416Z,96720.41
2022-08-27T09:24:24.740Z,96719.25
2022-08-27T09:26:55.321Z,96719.78
2022-08-27T09:29:29.980Z,96711.66
2022-08-27T09:32:02.206Z,96711.34
2022-08-27T09:34:38.636Z,96710.34
2022-08-27T09:37:15.682Z,96705.41
2022-08-27T09:39:53.785Z,96708.28
2022-08-27T09:42:37.447Z,96706.28
2022-08-27T09:45:11.913Z,96710.72
2022-08-27T09:47:46.664Z,96712.84
2022-08-27T09:50:19.892Z,96709.84
2022-08-27T09:52:55.308Z,96716.38
2022-08-27T09:55:46.190Z,96708.19
2022-08-27T09:58:22.881Z,96705.44
2022-08-27T10:01:02.435Z,96712.63
2022-08-27T10:03:33.419Z,96714.66
2022-08-27T10:06:02.453Z,96736.22
2022-08-27T10:08:41.908Z,96739.16
2022-08-27T10:11:19.500Z,96715.00
2022-08-27T10:14:01.312Z,96726.69
2022-08-27T10:17:07.734Z,96727.34
2022-08-27T10:19:47.494Z,96737.13
2022-08-27T10:22:36.193Z,96728.69
2022-08-27T10:25:30.016Z,96724.22
2022-08-27T10:28:06.796Z,96724.91
2022-08-27T10:31:11.530Z,96737.97
2022-08-27T10:34:01.476Z,96739.75
2022-08-27T10:36:49.192Z,96745.81
2022-08-27T10:39:41.396Z,96746.91
2022-08-27T10:42:26.294Z,96729.22
2022-08-27T10:45:31.066Z,96736.75
2022-08-27T10:48:18.176Z,96732.44
2022-08-27T10:50:54.592Z,96734.38
2022-08-27T10:53:37.472Z,96738.78
2022-08-27T10:56:15.530Z,96729.75
2022-08-27T10:59:02.893Z,96728.22
2022-08-27T11:01:48.619Z,96725.84
2022-08-27T11:04:26.152Z,96731.00
2022-08-27T11:07:01.325Z,96734.91
2022-08-27T11:09:41.205Z,96731.38
2022-08-27T11:12:15.357Z,96726.50
2022-08-27T11:14:53.482Z,96724.97
2022-08-27T11:17:34.758Z,96722.28
2022-08-27T11:20:13.155Z,96721.53
2022-08-27T11:22:47.196Z,96729.84
2022-08-27T11:25:36.795Z,96725.97
2022-08-27T11:28:08.610Z,96728.38
2022-08-27T11:30:53.406Z,96721.28
2022-08-27T11:33:30.212Z,96721.31
2022-08-27T11:36:31.626Z,96721.75
2022-08-27T11:39:06.056Z,96717.00
2022-08-27T11:42:01.539Z,96712.22
2022-08-27T11:44:30.825Z,96708.66
2022-08-27T11:47:15.168Z,96705.47
2022-08-27T11:49:48.722Z,96707.88
2022-08-27T11:52:29.253Z,96703.88
2022-08-27T11:55:14.549Z,96698.75
2022-08-27T11:57:45.100Z,96703.88
2022-08-27T12:00:21.400Z,96704.66
2022-08-27T12:03:00.422Z,96703.06
2022-08-27T12:05:42.697Z,96704.28
2022-08-27T12:08:29.342Z,96703.13
2022-08-27T12:11:29.162Z,96710.59
2022-08-27T12:14:12.350Z,96709.03
2022-08-27T12:16:56.118Z,96706.22
2022-08-27T12:19:43.662Z,96716.13
2022-08-27T12:23:03.745Z,96705.50
2022-08-27T12:25:33.824Z,96699.47
2022-08-27T12:28:05.383Z,96701.53
2022-08-27T12:30:38.243Z,96701.13
2022-08-27T12:33:16.213Z,96701.53
2022-08-27T12:35:49.372Z,96698.34
2022-08-27T12:38:25.021Z,96695.19
2022-08-27T12:41:00.256Z,96695.56
2022-08-27T12:43:33.655Z,96693.19
2022-08-27T12:46:07.921Z,96700.72
2022-08-27T12:48:42.604Z,96691.97
2022-08-27T12:51:17.244Z,96695.47
2022-08-27T12:53:52.535Z,96701.44
2022-08-27T12:56:51.055Z,96705.25
2022-08-27T13:00:04.288Z,96703.72
2022-08-27T13:03:16.383Z,96692.19
2022-08-27T13:05:51.623Z,96692.50
2022-08-27T13:08:24.347Z,96695.28
2022-08-27T13:10:52.647Z,96691.34
2022-08-27T13:13:25.613Z,96686.94
2022-08-27T13:16:06.368Z,96681.38
2022-08-27T13:18:36.707Z,96690.03
2022-08-27T13:21:16.651Z,96676.44
2022-08-27T13:23:59.328Z,96676.41
2022-08-27T13:26:31.502Z,96675.41
2022-08-27T13:29:03.679Z,96671.41
2022-08-27T13:31:34.328Z,96668.97
2022-08-27T13:34:06.984Z,96658.84
2022-08-27T13:36:52.489Z,96663.00
2022-08-27T13:39:21.234Z,96658.78
2022-08-27T13:41:50.228Z,96661.66
2022-08-27T13:44:27.733Z,96657.63
2022-08-27T13:47:04.314Z,96659.22
2022-08-27T13:49:40.229Z,96660.53
2022-08-27T13:52:24.675Z,96658.25
2022-08-27T13:55:09.400Z,96651.19
2022-08-27T13:57:45.928Z,96663.75
2022-08-27T14:00:24.451Z,96654.91
2022-08-27T14:02:56.176Z,96664.28
2022-08-27T14:05:36.825Z,96661.00
2022-08-27T14:08:17.272Z,96659.16
2022-08-27T14:10:50.504Z,96667.19
2022-08-27T14:13:24.913Z,96662.03
2022-08-27T14:15:56.981Z,96659.25
2022-08-27T14:18:42.502Z,96662.97
2022-08-27T14:21:16.996Z,96658.25
2022-08-27T14:23:45.798Z,96662.28
2022-08-27T14:26:17.347Z,96673.16
2022-08-27T14:28:46.323Z,96667.97
2022-08-27T14:31:16.659Z,96670.22
2022-08-27T14:33:46.449Z,96664.56
2022-08-27T14:36:16.094Z,96660.22
2022-08-27T14:38:48.005Z,96658.44
2022-08-27T14:41:21.457Z,96653.91
2022-08-27T14:43:50.314Z,96660.13
2022-08-27T14:46:29.836Z,96652.94
2022-08-27T14:49:01.867Z,96657.13
2022-08-27T14:51:34.227Z,96653.50
2022-08-27T14:54:03.076Z,96647.78
2022-08-27T14:56:31.775Z,96645.28
2022-08-27T14:59:00.362Z,96641.66
2022-08-27T15:01:30.620Z,96649.69
2022-08-27T15:03:59.577Z,96647.53
2022-08-27T15:06:28.159Z,96652.91
2022-08-27T15:08:56.434Z,96656.50
2022-08-27T15:11:28.541Z,96650.94
2022-08-27T15:13:59.561Z,96650.56
2022-08-27T15:16:32.485Z,96650.94
2022-08-27T15:19:01.570Z,96649.34
2022-08-27T15:21:31.737Z,96644.16
2022-08-27T15:24:04.197Z,96654.78
2022-08-27T15:26:33.224Z,96652.31
2022-08-27T15:29:06.189Z,96646.19
2022-08-27T15:31:36.671Z,96658.03
2022-08-27T15:34:05.107Z,96650.53
2022-08-27T15:36:33.463Z,96652.16
2022-08-27T15:39:01.884Z,96654.16
2022-08-27T15:41:32.327Z,96651.84
2022-08-27T15:44:02.464Z,96648.31
2022-08-27T15:46:31.464Z,96650.78
2022-08-27T15:49:01.288Z,96648.88
2022-08-27T15:51:34.369Z,96648.88
2022-08-27T15:54:02.880Z,96651.66
2022-08-27T15:56:34.480Z,96652.44
2022-08-27T15:59:03.155Z,96645.38
2022-08-27T16:01:36.581Z,96649.00
2022-08-27T16:04:07.925Z,96643.00
2022-08-27T16:06:36.947Z,96644.56
2022-08-27T16:09:06.807Z,96649.28
2022-08-27T16:11:35.424Z,96647.31
2022-08-27T16:14:03.993Z,96642.94
2022-08-27T16:16:34.044Z,96645.28
2022-08-27T16:19:05.688Z,96646.91
2022-08-27T16:21:36.710Z,96648.47
2022-08-27T16:24:09.397Z,96643.72
2022-08-27T16:26:40.124Z,96640.13
2022-08-27T16:29:09.065Z,96637.69
2022-08-27T16:31:38.794Z,96640.50
2022-08-27T16:34:16.234Z,96643.59
2022-08-27T16:36:46.970Z,96646.06
2022-08-27T16:39:15.217Z,96642.91
2022-08-27T16:41:43.564Z,96633.81
2022-08-27T16:44:13.428Z,96637.81
2022-08-27T16:46:41.870Z,96644.97
2022-08-27T16:49:27.986Z,96642.94
2022-08-27T16:51:57.704Z,96644.44
2022-08-27T16:54:26.492Z,96645.97
2022-08-27T16:56:55.032Z,96653.03
2022-08-27T16:59:23.687Z,96652.03
2022-08-27T17:01:55.409Z,96656.19
2022-08-27T17:04:31.238Z,96663.38
2022-08-27T17:07:05.617Z,96656.84
2022-08-27T17:09:34.917Z,96660.59
2022-08-27T17:12:05.667Z,96667.06
2022-08-27T17:14:37.967Z,96670.03
2022-08-27T17:17:09.497Z,96674.19
2022-08-27T17:19:37.940Z,96673.53
2022-08-27T17:22:09.509Z,96675.19
2022-08-27T17:24:38.476Z,96669.72
2022-08-27T17:27:07.139Z,96685.25
2022-08-27T17:29:36.756Z,96686.03
2022-08-27T17:32:07.926Z,96691.22
2022-08-27T17:34:37.104Z,96694.41
2022-08-27T17:37:06.889Z,96695.19
2022-08-27T17:39:35.266Z,96695.19
2022-08-27T17:42:03.615Z,96694.78
2022-08-27T17:44:35.965Z,96700.72
2022-08-27T17:47:08.190Z,96699.56
2022-08-27T17:49:37.034Z,96703.50
2022-08-27T17:52:10.712Z,96709.47
2022-08-27T17:54:42.253Z,96708.66
2022-08-27T17:57:18.010Z,96705.50
2022-08-27T17:59:47.489Z,96710.25
2022-08-27T18:02:21.659Z,96712.22
2022-08-27T18:04:50.652Z,96713.81
2022-08-27T18:07:20.832Z,96718.19
2022-08-27T18:09:50.417Z,96718.97
2022-08-27T18:12:23.819Z,96717.38
2022-08-27T18:15:03.867Z,96718.59
2022-08-27T18:17:32.346Z,96722.56
2022-08-27T18:20:01.241Z,96720.56
2022-08-27T18:22:32.391Z,96730.09
2022-08-27T18:25:08.693Z,96733.66
2022-08-27T18:27:41.102Z,96726.09
2022-08-27T18:30:12.273Z,96738.41
2022-08-27T18:32:41.572Z,96734.44
2022-08-27T18:35:17.100Z,96731.28
2022-08-27T18:37:47.138Z,96742.38
2022-08-27T18:40:19.459Z,96746.75
2022-08-27T18:42:49.198Z,96743.63
2022-08-27T18:45:23.133Z,96749.94
2022-08-27T18:47:52.653Z,96762.25
2022-08-27T18:50:21.541Z,96761.84
2022-08-27T18:52:54.537Z,96767.03
2022-08-27T18:55:28.002Z,96771.34
2022-08-27T18:57:56.642Z,96773.31
2022-08-27T19:00:25.254Z,96780.72
2022-08-27T19:02:54.308Z,96777.38
2022-08-27T19:05:27.424Z,96781.66
2022-08-27T19:07:59.156Z,96791.88
2022-08-27T19:10:28.164Z,96791.44
2022-08-27T19:12:56.468Z,96799.69
2022-08-27T19:15:24.794Z,96803.59
2022-08-27T19:17:57.902Z,96799.22
2022-08-27T19:20:27.482Z,96802.34
2022-08-27T19:22:58.835Z,96798.38
2022-08-27T19:25:29.568Z,96800.34
2022-08-27T19:27:58.285Z,96797.56
2022-08-27T19:30:26.665Z,96798.34
2022-08-27T19:32:57.760Z,96797.94
2022-08-27T19:35:26.613Z,96799.56
2022-08-27T19:37:56.564Z,96801.50
2022-08-27T19:40:26.061Z,96804.66
2022-08-27T19:42:55.080Z,96799.94
2022-08-27T19:45:24.371Z,96802.25
2022-08-27T19:47:54.069Z,96799.00
2022-08-27T19:50:24.449Z,96795.00
2022-08-27T19:52:53.621Z,96792.97
2022-08-27T19:55:23.453Z,96786.25
2022-08-27T19:57:52.045Z,96793.00
2022-08-27T20:00:24.985Z,96788.22
2022-08-27T20:02:57.240Z,96786.00
2022-08-27T20:05:25.604Z,96788.41
2022-08-27T20:07:54.657Z,96784.09
2022-08-27T20:10:36.072Z,96783.31
2022-08-27T20:13:06.053Z,96796.34
2022-08-27T20:15:35.541Z,96787.50
2022-08-27T20:18:05.338Z,96797.41
2022-08-27T20:20:35.008Z,96790.34
2022-08-27T20:23:05.113Z,96789.22
2022-08-27T20:25:37.215Z,96791.91
2022-08-27T20:28:37.362Z,96790.72
2022-08-27T20:30:57.434Z,96791.16
2022-08-27T20:33:27.028Z,96792.00
2022-08-27T20:35:56.809Z,96784.88
2022-08-27T20:38:25.428Z,96778.06
2022-08-27T20:40:55.278Z,96781.19
2022-08-27T20:43:23.650Z,96787.91
2022-08-27T20:45:52.092Z,96779.19
2022-08-27T20:48:20.569Z,96780.41
2022-08-27T20:50:49.091Z,96776.44
2022-08-27T20:53:17.999Z,96778.06
2022-08-27T20:55:46.514Z,96776.19
2022-08-27T20:58:42.015Z,96783.25
2022-08-27T21:01:11.348Z,96780.94
2022-08-27T21:03:39.905Z,96780.91
2022-08-27T21:06:08.986Z,96769.75
2022-08-27T21:08:39.536Z,96772.19
2022-08-27T21:11:12.880Z,96781.28
2022-08-27T21:13:55.745Z,96778.78
2022-08-27T21:16:25.578Z,96773.97
2022-08-27T21:18:55.678Z,96777.88
2022-08-27T21:21:24.702Z,96776.28
2022-08-27T21:23:53.319Z,96779.44
2022-08-27T21:26:23.047Z,96783.81
2022-08-27T21:28:55.998Z,96785.41
2022-08-27T21:31:25.558Z,96783.00
2022-08-27T21:33:54.563Z,96791.69
2022-08-27T21:36:23.654Z,96801.31
2022-08-27T21:38:52.079Z,96794.53
2022-08-27T21:41:20.685Z,96791.72
2022-08-27T21:43:49.141Z,96787.44
2022-08-27T21:46:20.541Z,96788.56
2022-08-27T21:48:58.545Z,96792.44
2022-08-27T21:51:27.942Z,96792.41
2022-08-27T21:53:56.321Z,96797.63
2022-08-27T21:56:24.656Z,96803.47
2022-08-27T21:58:53.144Z,96805.91
2022-08-27T22:01:23.096Z,96808.22
2022-08-27T22:03:51.684Z,96813.06
2022-08-27T22:06:20.604Z,96816.25
2022-08-27T22:08:49.129Z,96810.69
2022-08-27T22:11:21.961Z,96816.97
2022-08-27T22:13:52.334Z,96818.91
2022-08-27T22:16:22.139Z,96818.97
2022-08-27T22:18:54.689Z,96821.81
2022-08-27T22:21:23.918Z,96821.78
2022-08-27T22:23:52.504Z,96822.56
2022-08-27T22:26:22.085Z,96823.31
2022-08-27T22:28:50.390Z,96828.88
2022-08-27T22:31:19.539Z,96824.59
2022-08-27T22:33:49.413Z,96828.13
2022-08-27T22:36:17.849Z,96821.81
2022-08-27T22:38:47.696Z,96831.34
2022-08-27T22:41:18.229Z,96833.00
2022-08-27T22:43:47.321Z,96827.44
2022-08-27T22:46:15.880Z,96829.78
2022-08-27T22:48:44.220Z,96825.78
2022-08-27T22:51:13.940Z,96827.00
2022-08-27T22:53:42.495Z,96825.44
2022-08-27T22:56:10.816Z,96819.88
2022-08-27T22:58:40.650Z,96817.50
2022-08-27T23:01:14.767Z,96818.19
2022-08-27T23:03:43.116Z,96819.38
2022-08-27T23:06:12.886Z,96809.50
2022-08-27T23:08:41.735Z,96812.63
2022-08-27T23:11:10.077Z,96810.69
2022-08-27T23:13:38.753Z,96816.22
2022-08-27T23:16:09.113Z,96813.53
2022-08-27T23:18:39.306Z,96809.50
2022-08-27T23:21:08.061Z,96812.66
2022-08-27T23:23:39.556Z,96802.00
2022-08-27T23:26:25.687Z,96807.97
2022-08-27T23:28:54.933Z,96809.22
2022-08-27T23:31:23.675Z,96806.81
2022-08-27T23:33:54.278Z,96809.97
2022-08-27T23:36:23.248Z,96811.09
2022-08-27T23:38:53.055Z,96809.97
2022-08-27T23:41:21.676Z,96812.34
2022-08-27T23:43:49.978Z,96800.06
2022-08-27T23:46:18.361Z,96800.91
2022-08-27T23:48:46.675Z,96808.38
2022-08-27T23:51:15.007Z,96805.22
2022-08-27T23:53:43.510Z,96803.97
2022-08-27T23:56:13.373Z,96806.34
2022-08-27T23:58:41.977Z,96800.38
